createdAt,value
2019-05-28T00:03:00.648Z,9.00
2019-05-28T00:07:02.808Z,9.03
2019-05-28T00:11:04.847Z,9.02
2019-05-28T00:15:07.264Z,9.02
2019-05-28T00:19:09.755Z,9.03
2019-05-28T00:23:11.851Z,9.03
2019-05-28T00:27:13.971Z,9.08
2019-05-28T00:31:17.133Z,9.11
2019-05-28T00:35:19.546Z,9.15
2019-05-28T00:39:21.631Z,9.17
2019-05-28T00:43:24.036Z,9.19
2019-05-28T00:47:26.408Z,9.21
2019-05-28T00:51:28.909Z,9.23
2019-05-28T00:55:31.147Z,9.24
2019-05-28T00:59:34.735Z,9.25
2019-05-28T01:03:36.822Z,9.26
2019-05-28T01:07:38.939Z,9.26
2019-05-28T01:11:41.129Z,9.30
2019-05-28T01:15:43.551Z,9.33
2019-05-28T01:19:45.677Z,9.32
2019-05-28T01:23:47.982Z,9.34
2019-05-28T01:27:50.121Z,9.34
2019-05-28T01:31:52.258Z,9.35
2019-05-28T01:35:54.358Z,9.36
2019-05-28T01:39:56.865Z,9.35
2019-05-28T01:43:58.908Z,9.33
2019-05-28T01:48:01.051Z,9.34
2019-05-28T01:52:03.199Z,9.35
2019-05-28T01:56:05.349Z,9.36
2019-05-28T02:00:07.918Z,9.31
2019-05-28T02:04:10.381Z,9.34
2019-05-28T02:08:12.509Z,9.35
2019-05-28T02:12:15.752Z,9.32
2019-05-28T02:16:18.103Z,9.34
2019-05-28T02:20:21.583Z,9.36
2019-05-28T02:24:23.896Z,9.37
2019-05-28T02:28:26.283Z,9.34
2019-05-28T02:32:28.144Z,9.33
2019-05-28T02:36:30.399Z,9.34
2019-05-28T02:40:32.388Z,9.39
2019-05-28T02:44:34.516Z,9.43
2019-05-28T02:48:36.635Z,9.47
2019-05-28T02:52:39.569Z,9.50
2019-05-28T02:56:43.744Z,9.53
2019-05-28T03:00:46.988Z,9.54
2019-05-28T03:04:49.449Z,9.55
2019-05-28T03:08:53.561Z,9.58
2019-05-28T03:12:55.716Z,9.65
2019-05-28T03:17:00.616Z,9.62
2019-05-28T03:21:04.475Z,9.64
2019-05-28T03:25:07.373Z,9.65
2019-05-28T03:29:09.653Z,9.64
2019-05-28T03:33:12.956Z,9.66
2019-05-28T03:37:15.415Z,9.68
2019-05-28T03:41:17.548Z,9.68
2019-05-28T03:45:19.632Z,9.69
2019-05-28T03:49:21.769Z,9.68
2019-05-28T03:53:23.921Z,9.68
2019-05-28T03:57:26.029Z,9.73
2019-05-28T04:01:28.641Z,9.67
2019-05-28T04:05:31.175Z,9.64
2019-05-28T04:09:34.026Z,9.65
2019-05-28T04:13:36.468Z,9.73
2019-05-28T04:17:38.815Z,9.84
2019-05-28T04:21:41.086Z,9.97
2019-05-28T04:25:43.180Z,10.02
2019-05-28T04:29:45.314Z,10.08
2019-05-28T04:33:47.437Z,10.28
2019-05-28T04:37:50.597Z,10.33
2019-05-28T04:41:52.772Z,10.40
2019-05-28T04:45:55.149Z,10.46
2019-05-28T04:49:57.466Z,10.50
2019-05-28T04:53:59.953Z,10.52
2019-05-28T04:58:02.080Z,10.60
2019-05-28T05:02:04.711Z,10.46
2019-05-28T05:06:07.006Z,10.66
2019-05-28T05:10:09.848Z,10.79
2019-05-28T05:14:11.899Z,10.82
2019-05-28T05:18:13.955Z,10.96
2019-05-28T05:22:15.948Z,10.98
2019-05-28T05:26:20.109Z,11.25
2019-05-28T05:30:23.589Z,11.15
2019-05-28T05:34:28.662Z,10.89
2019-05-28T05:38:30.733Z,10.96
2019-05-28T05:42:32.923Z,11.02
2019-05-28T05:46:35.086Z,12.15
2019-05-28T05:50:37.214Z,12.03
2019-05-28T05:54:39.391Z,11.79
2019-05-28T05:58:42.441Z,12.27
2019-05-28T06:02:44.472Z,12.03
2019-05-28T06:06:46.607Z,12.33
2019-05-28T06:10:48.641Z,12.70
2019-05-28T06:14:50.854Z,12.62
2019-05-28T06:18:52.998Z,13.50
2019-05-28T06:22:55.026Z,13.72
2019-05-28T06:26:57.215Z,13.50
2019-05-28T06:30:59.623Z,13.51
2019-05-28T06:35:01.746Z,13.12
2019-05-28T06:39:03.917Z,12.97
2019-05-28T06:43:05.870Z,13.13
2019-05-28T06:47:07.995Z,13.23
2019-05-28T06:51:10.134Z,13.43
2019-05-28T06:55:12.385Z,13.60
2019-05-28T06:59:14.498Z,13.57
2019-05-28T07:03:16.637Z,13.53
2019-05-28T07:07:18.752Z,13.40
2019-05-28T07:11:20.874Z,13.33
2019-05-28T07:15:24.321Z,13.34
2019-05-28T07:19:26.408Z,13.21
2019-05-28T07:23:28.479Z,13.17
2019-05-28T07:27:30.893Z,13.94
2019-05-28T07:31:32.971Z,14.04
2019-05-28T07:35:45.390Z,14.67
2019-05-28T07:39:39.072Z,14.60
2019-05-28T07:43:41.349Z,14.37
2019-05-28T07:47:43.354Z,14.87
2019-05-28T07:51:45.824Z,14.50
2019-05-28T07:55:48.180Z,14.19
2019-05-28T07:59:50.221Z,14.81
2019-05-28T08:03:52.344Z,15.10
2019-05-28T08:07:54.630Z,14.36
2019-05-28T08:11:56.807Z,14.36
2019-05-28T08:16:17.000Z,14.21
2019-05-28T08:20:02.688Z,13.53
2019-05-28T08:24:04.886Z,13.60
2019-05-28T08:28:19.178Z,13.37
2019-05-28T08:32:11.113Z,13.34
2019-05-28T08:36:13.252Z,13.17
2019-05-28T08:40:16.575Z,13.07
2019-05-28T08:44:18.542Z,13.19
2019-05-28T08:48:20.516Z,13.07
2019-05-28T08:52:22.754Z,12.99
2019-05-28T08:56:24.819Z,13.06
2019-05-28T09:00:45.946Z,13.46
2019-05-28T09:04:48.282Z,14.25
2019-05-28T09:08:50.643Z,14.05
2019-05-28T09:12:52.784Z,14.26
2019-05-28T09:16:54.902Z,14.35
2019-05-28T09:20:57.204Z,14.23
2019-05-28T09:24:59.404Z,14.81
2019-05-28T09:29:01.678Z,14.82
2019-05-28T09:33:05.017Z,14.49
2019-05-28T09:37:07.411Z,14.49
2019-05-28T09:41:09.434Z,13.69
2019-05-28T09:45:22.542Z,14.24
2019-05-28T09:49:15.942Z,14.64
2019-05-28T09:53:17.984Z,15.08
2019-05-28T09:57:19.777Z,15.78
2019-05-28T10:01:21.998Z,16.09
2019-05-28T10:05:23.988Z,16.30
2019-05-28T10:09:25.892Z,16.18
2019-05-28T10:13:38.346Z,16.28
2019-05-28T10:17:32.038Z,16.50
2019-05-28T10:21:34.223Z,16.73
2019-05-28T10:25:36.388Z,16.66
2019-05-28T10:29:38.559Z,16.81
2019-05-28T10:33:40.850Z,17.19
2019-05-28T10:37:42.987Z,16.55
2019-05-28T10:41:45.238Z,16.91
2019-05-28T10:45:47.470Z,17.94
2019-05-28T10:49:51.109Z,17.10
2019-05-28T10:53:53.339Z,16.99
2019-05-28T10:57:55.256Z,17.23
2019-05-28T11:01:57.396Z,17.76
2019-05-28T11:06:00.429Z,17.90
2019-05-28T11:10:02.595Z,17.46
2019-05-28T11:14:06.011Z,17.65
2019-05-28T11:18:08.520Z,17.47
2019-05-28T11:22:11.131Z,18.14
2019-05-28T11:26:13.251Z,18.14
2019-05-28T11:30:18.354Z,17.68
2019-05-28T11:34:20.601Z,18.50
2019-05-28T11:38:22.693Z,18.79
2019-05-28T11:42:24.818Z,17.90
2019-05-28T11:46:27.471Z,17.50
2019-05-28T11:50:29.691Z,18.19
2019-05-28T11:54:32.031Z,18.46
2019-05-28T11:58:34.144Z,18.42
2019-05-28T12:02:36.395Z,17.85
2019-05-28T12:06:38.571Z,17.43
2019-05-28T12:10:40.771Z,17.14
2019-05-28T12:14:44.057Z,17.07
2019-05-28T12:18:46.326Z,17.45
2019-05-28T12:22:48.456Z,17.92
2019-05-28T12:26:50.616Z,17.84
2019-05-28T12:30:52.619Z,17.47
2019-05-28T12:34:54.635Z,17.74
2019-05-28T12:38:56.869Z,17.40
2019-05-28T12:43:00.645Z,17.07
2019-05-28T12:47:02.752Z,17.23
2019-05-28T12:51:05.021Z,17.19
2019-05-28T12:55:07.815Z,17.47
2019-05-28T12:59:09.761Z,17.36
2019-05-28T13:03:12.572Z,17.15
2019-05-28T13:07:14.337Z,17.15
2019-05-28T13:11:16.182Z,17.16
2019-05-28T13:15:19.826Z,17.34
2019-05-28T13:19:21.577Z,17.39
2019-05-28T13:23:23.606Z,16.97
2019-05-28T13:27:25.612Z,16.90
2019-05-28T13:31:27.479Z,17.00
2019-05-28T13:35:30.011Z,17.22
2019-05-28T13:39:32.435Z,17.11
2019-05-28T13:43:34.715Z,16.97
2019-05-28T13:47:36.901Z,17.25
2019-05-28T13:51:38.998Z,17.27
2019-05-28T13:55:41.328Z,17.38
2019-05-28T13:59:43.112Z,17.52
2019-05-28T14:03:45.434Z,17.42
2019-05-28T14:07:47.198Z,17.40
2019-05-28T14:11:49.018Z,17.48
2019-05-28T14:15:50.837Z,17.30
2019-05-28T14:19:52.957Z,17.32
2019-05-28T14:23:54.707Z,17.33
2019-05-28T14:27:56.526Z,17.35
2019-05-28T14:31:58.282Z,17.33
2019-05-28T14:36:00.126Z,17.27
2019-05-28T14:40:03.014Z,17.26
2019-05-28T14:44:05.038Z,17.37
2019-05-28T14:48:06.907Z,17.93
2019-05-28T14:52:08.733Z,17.52
2019-05-28T14:56:10.739Z,17.14
2019-05-28T15:00:14.681Z,17.12
2019-05-28T15:04:16.857Z,17.18
2019-05-28T15:08:18.931Z,17.00
2019-05-28T15:12:20.906Z,16.92
2019-05-28T15:16:22.906Z,16.92
2019-05-28T15:20:25.203Z,16.68
2019-05-28T15:24:27.366Z,16.36
2019-05-28T15:28:29.348Z,16.40
2019-05-28T15:32:31.434Z,16.28
2019-05-28T15:36:33.465Z,16.20
2019-05-28T15:40:35.697Z,16.02
2019-05-28T15:44:37.993Z,15.86
2019-05-28T15:48:40.135Z,15.75
2019-05-28T15:52:42.511Z,15.54
2019-05-28T15:56:46.594Z,15.47
2019-05-28T16:00:48.911Z,15.43
2019-05-28T16:04:51.015Z,15.24
2019-05-28T16:08:53.361Z,15.16
2019-05-28T16:12:55.572Z,15.12
2019-05-28T16:16:57.600Z,15.10
2019-05-28T16:20:59.718Z,14.90
2019-05-28T16:25:01.937Z,14.91
2019-05-28T16:29:04.080Z,14.95
2019-05-28T16:33:06.127Z,14.99
2019-05-28T16:37:08.116Z,15.00
2019-05-28T16:41:10.380Z,14.86
2019-05-28T16:45:13.825Z,14.54
2019-05-28T16:49:15.960Z,14.29
2019-05-28T16:53:18.010Z,14.21
2019-05-28T16:57:20.080Z,14.14
2019-05-28T17:01:23.228Z,14.03
2019-05-28T17:05:25.290Z,13.96
2019-05-28T17:09:27.426Z,13.90
2019-05-28T17:13:29.572Z,13.85
2019-05-28T17:17:31.646Z,13.76
2019-05-28T17:21:33.807Z,13.81
2019-05-28T17:25:36.146Z,13.80
2019-05-28T17:29:38.349Z,13.68
2019-05-28T17:33:40.531Z,13.54
2019-05-28T17:37:42.685Z,13.41
2019-05-28T17:41:46.287Z,13.23
2019-05-28T17:45:49.387Z,13.15
2019-05-28T17:49:52.575Z,13.06
2019-05-28T17:53:54.889Z,13.06
2019-05-28T17:57:57.222Z,12.98
2019-05-28T18:01:59.531Z,12.96
2019-05-28T18:06:01.705Z,12.94
2019-05-28T18:10:03.940Z,12.83
2019-05-28T18:14:06.272Z,12.74
2019-05-28T18:18:08.310Z,12.72
2019-05-28T18:22:10.510Z,12.67
2019-05-28T18:26:12.826Z,12.54
2019-05-28T18:30:16.271Z,12.57
2019-05-28T18:34:18.471Z,12.44
2019-05-28T18:38:20.847Z,12.37
2019-05-28T18:42:23.231Z,12.32
2019-05-28T18:46:26.969Z,12.26
2019-05-28T18:50:29.014Z,12.15
2019-05-28T18:54:31.121Z,12.15
2019-05-28T18:58:35.699Z,11.96
2019-05-28T19:02:37.530Z,11.91
2019-05-28T19:06:39.798Z,11.83
2019-05-28T19:10:41.983Z,11.82
2019-05-28T19:14:44.106Z,11.74
2019-05-28T19:18:46.165Z,11.63
2019-05-28T19:22:48.265Z,11.59
2019-05-28T19:26:50.506Z,11.56
2019-05-28T19:30:52.837Z,11.53
2019-05-28T19:34:55.224Z,11.46
2019-05-28T19:38:58.720Z,11.44
2019-05-28T19:43:00.786Z,11.39
2019-05-28T19:47:03.076Z,11.39
2019-05-28T19:51:06.516Z,11.32
2019-05-28T19:55:09.018Z,11.28
2019-05-28T19:59:11.307Z,11.27
2019-05-28T20:03:14.359Z,11.23
2019-05-28T20:07:16.807Z,11.21
2019-05-28T20:11:18.947Z,11.21
2019-05-28T20:15:23.717Z,11.17
2019-05-28T20:19:25.430Z,11.07
2019-05-28T20:23:27.574Z,11.06
2019-05-28T20:27:29.822Z,11.02
2019-05-28T20:31:32.118Z,11.02
2019-05-28T20:35:34.367Z,10.99
2019-05-28T20:39:36.300Z,11.00
2019-05-28T20:43:38.609Z,10.99
2019-05-28T20:47:40.834Z,10.96
2019-05-28T20:51:42.994Z,10.96
2019-05-28T20:55:45.282Z,11.00
2019-05-28T20:59:47.462Z,11.02
2019-05-28T21:03:49.806Z,11.02
2019-05-28T21:07:53.103Z,11.01
2019-05-28T21:11:56.656Z,11.00
2019-05-28T21:15:59.052Z,11.01
2019-05-28T21:20:01.237Z,11.03
2019-05-28T21:24:03.365Z,11.07
2019-05-28T21:28:05.496Z,11.08
2019-05-28T21:32:07.596Z,11.12
2019-05-28T21:36:09.774Z,11.12
2019-05-28T21:40:12.795Z,11.16
2019-05-28T21:44:15.134Z,11.11
2019-05-28T21:48:17.261Z,11.07
2019-05-28T21:52:19.679Z,11.03
2019-05-28T21:56:21.946Z,11.00
2019-05-28T22:00:37.748Z,10.94
2019-05-28T22:04:41.418Z,10.91
2019-05-28T22:08:43.831Z,10.89
2019-05-28T22:12:46.286Z,10.87
2019-05-28T22:16:48.790Z,10.91
2019-05-28T22:20:53.308Z,10.87
2019-05-28T22:24:56.329Z,10.87
2019-05-28T22:28:59.449Z,10.93
2019-05-28T22:33:02.302Z,10.92
2019-05-28T22:37:04.639Z,10.91
2019-05-28T22:41:08.598Z,10.93
2019-05-28T22:45:11.208Z,10.95
2019-05-28T22:49:14.054Z,10.93
2019-05-28T22:53:16.373Z,10.98
2019-05-28T22:57:18.589Z,10.97
2019-05-28T23:01:20.683Z,10.95
2019-05-28T23:05:22.886Z,10.91
2019-05-28T23:09:25.021Z,10.89
2019-05-28T23:13:27.158Z,10.84
2019-05-28T23:17:29.376Z,10.82
2019-05-28T23:21:31.711Z,10.77
2019-05-28T23:25:33.929Z,10.73
2019-05-28T23:29:36.048Z,10.72
2019-05-28T23:33:38.542Z,10.70
2019-05-28T23:37:40.954Z,10.72
2019-05-28T23:41:43.258Z,10.73
2019-05-28T23:45:45.367Z,10.75
2019-05-28T23:49:47.445Z,10.72
2019-05-28T23:53:49.962Z,10.70
2019-05-28T23:57:52.122Z,10.71
